createdAt,value
2018-08-04T00:49:48.355Z,22.93
2018-08-04T00:50:48.101Z,22.92
2018-08-04T00:51:47.996Z,22.93
2018-08-04T00:52:48.120Z,22.97
2018-08-04T00:53:47.880Z,22.90
2018-08-04T00:54:47.918Z,22.89
2018-08-04T00:55:48.003Z,22.94
2018-08-04T00:56:47.783Z,23.01
2018-08-04T00:57:47.729Z,22.94
2018-08-04T00:58:47.708Z,22.99
2018-08-04T00:59:47.679Z,23.08
2018-08-04T01:00:47.605Z,23.12
2018-08-04T01:01:47.741Z,23.14
2018-08-04T01:02:47.538Z,23.07
2018-08-04T01:03:47.586Z,23.14
2018-08-04T01:04:47.548Z,23.17
2018-08-04T01:05:47.441Z,23.22
2018-08-04T01:06:47.616Z,23.29
2018-08-04T01:07:47.388Z,23.17
2018-08-04T01:08:47.332Z,23.23
2018-08-04T01:09:47.314Z,23.27
2018-08-04T01:10:47.309Z,23.26
2018-08-04T01:11:47.236Z,23.23
2018-08-04T01:12:47.201Z,23.35
2018-08-04T01:13:47.214Z,23.39
2018-08-04T01:14:47.256Z,23.35
2018-08-04T01:15:47.191Z,23.40
2018-08-04T01:16:47.251Z,23.46
2018-08-04T01:17:47.066Z,23.42
2018-08-04T01:18:47.002Z,23.43
2018-08-04T01:19:47.020Z,23.50
2018-08-04T01:20:46.976Z,23.47
2018-08-04T01:21:46.898Z,23.50
2018-08-04T01:22:47.085Z,23.60
2018-08-04T01:23:46.838Z,23.55
2018-08-04T01:24:46.857Z,23.62
2018-08-04T01:25:46.771Z,23.65
2018-08-04T01:26:46.959Z,23.65
2018-08-04T01:27:46.712Z,23.67
2018-08-04T01:28:46.724Z,23.75
2018-08-04T01:29:46.655Z,23.70
2018-08-04T01:30:46.611Z,23.72
2018-08-04T01:31:46.584Z,23.75
2018-08-04T01:32:46.621Z,23.75
2018-08-04T01:33:46.719Z,23.67
2018-08-04T01:34:46.498Z,23.79
2018-08-04T01:35:46.481Z,23.67
2018-08-04T01:36:46.491Z,23.68
2018-08-04T01:37:46.399Z,23.77
2018-08-04T01:38:46.365Z,23.77
2018-08-04T01:39:46.353Z,23.82
2018-08-04T01:40:46.301Z,23.75
2018-08-04T01:41:46.273Z,23.77
2018-08-04T01:42:46.256Z,23.79
2018-08-04T01:43:46.212Z,23.90
2018-08-04T01:44:46.192Z,23.89
2018-08-04T01:45:46.170Z,23.85
2018-08-04T01:46:46.161Z,23.82
2018-08-04T01:47:46.099Z,23.80
2018-08-04T01:48:46.107Z,23.83
2018-08-04T01:49:46.023Z,23.71
2018-08-04T01:50:46.010Z,23.76
2018-08-04T01:51:45.977Z,23.71
2018-08-04T01:52:45.934Z,23.72
2018-08-04T01:53:45.906Z,23.72
2018-08-04T01:54:45.876Z,23.79
2018-08-04T01:55:45.843Z,23.83
2018-08-04T01:56:45.843Z,23.82
2018-08-04T01:57:45.789Z,23.75
2018-08-04T01:58:45.751Z,23.82
2018-08-04T01:59:45.725Z,23.89
2018-08-04T02:00:45.697Z,23.95
2018-08-04T02:01:45.695Z,24.07
2018-08-04T02:02:45.648Z,24.02
2018-08-04T02:03:45.595Z,24.02
2018-08-04T02:04:45.570Z,24.07
2018-08-04T02:05:45.698Z,24.19
2018-08-04T02:06:45.507Z,24.19
2018-08-04T02:07:45.482Z,24.19
2018-08-04T02:08:45.458Z,24.26
2018-08-04T02:09:45.430Z,24.34
2018-08-04T02:10:45.394Z,24.32
2018-08-04T02:11:45.361Z,24.23
2018-08-04T02:12:45.333Z,24.31
2018-08-04T02:13:45.300Z,24.16
2018-08-04T02:14:45.280Z,24.23
2018-08-04T02:15:45.239Z,24.20
2018-08-04T02:16:45.223Z,24.16
2018-08-04T02:17:45.179Z,24.13
2018-08-04T02:18:45.146Z,24.10
2018-08-04T02:19:45.119Z,24.10
2018-08-04T02:20:45.586Z,24.05
2018-08-04T02:21:45.062Z,24.00
2018-08-04T02:22:45.042Z,24.05
2018-08-04T02:23:44.999Z,23.95
2018-08-04T02:24:44.967Z,24.04
2018-08-04T02:25:44.941Z,24.10
2018-08-04T02:26:45.313Z,24.08
2018-08-04T02:27:44.882Z,24.16
2018-08-04T02:28:44.838Z,24.14
2018-08-04T02:29:44.840Z,24.35
2018-08-04T02:30:44.785Z,24.37
2018-08-04T02:31:44.745Z,24.34
2018-08-04T02:32:44.879Z,24.42
2018-08-04T02:33:44.694Z,24.24
2018-08-04T02:34:44.661Z,24.27
2018-08-04T02:35:44.629Z,24.37
2018-08-04T02:36:44.598Z,24.32
2018-08-04T02:37:44.925Z,24.34
2018-08-04T02:38:44.665Z,24.37
2018-08-04T02:39:44.555Z,24.41
2018-08-04T02:40:44.495Z,24.41
2018-08-04T02:41:44.448Z,24.41
2018-08-04T02:42:44.416Z,24.37
2018-08-04T02:43:44.390Z,24.35
2018-08-04T02:44:44.390Z,24.29
2018-08-04T02:45:44.333Z,24.27
2018-08-04T02:46:44.322Z,24.34
2018-08-04T02:47:44.267Z,24.22
2018-08-04T02:48:44.239Z,24.17
2018-08-04T02:49:44.219Z,24.14
2018-08-04T02:50:44.190Z,24.16
2018-08-04T02:51:44.157Z,24.10
2018-08-04T02:52:44.156Z,24.10
2018-08-04T02:53:44.449Z,24.12
2018-08-04T02:54:44.057Z,24.02
2018-08-04T02:55:44.033Z,23.98
2018-08-04T02:56:43.999Z,23.83
2018-08-04T02:57:43.981Z,23.82
2018-08-04T02:58:43.932Z,23.82
2018-08-04T02:59:44.012Z,23.70
2018-08-04T03:00:43.878Z,23.67
2018-08-04T03:01:43.847Z,23.65
2018-08-04T03:02:43.829Z,23.68
2018-08-04T03:03:43.793Z,23.62
2018-08-04T03:04:43.762Z,23.60
2018-08-04T03:05:43.883Z,23.46
2018-08-04T03:06:43.716Z,23.46
2018-08-04T03:07:43.670Z,23.58
2018-08-04T03:08:43.634Z,23.55
2018-08-04T03:09:43.634Z,23.55
2018-08-04T03:10:43.581Z,23.60
2018-08-04T03:11:43.563Z,23.57
2018-08-04T03:12:43.525Z,23.55
2018-08-04T03:13:43.487Z,23.42
2018-08-04T03:14:43.461Z,23.50
2018-08-04T03:15:43.425Z,23.53
2018-08-04T03:16:43.400Z,23.46
2018-08-04T03:17:43.363Z,23.50
2018-08-04T03:18:43.333Z,23.50
2018-08-04T03:19:43.309Z,23.49
2018-08-04T03:20:43.270Z,23.45
2018-08-04T03:21:43.247Z,23.52
2018-08-04T03:22:43.229Z,23.52
2018-08-04T03:23:43.185Z,23.45
2018-08-04T03:24:43.160Z,23.35
2018-08-04T03:25:43.140Z,23.38
2018-08-04T03:26:43.299Z,23.38
2018-08-04T03:27:43.062Z,23.38
2018-08-04T03:28:43.042Z,23.32
2018-08-04T03:29:43.000Z,23.29
2018-08-04T03:30:42.982Z,23.26
2018-08-04T03:31:42.941Z,23.24
2018-08-04T03:32:42.931Z,23.24
2018-08-04T03:33:42.894Z,23.19
2018-08-04T03:34:42.850Z,23.22
2018-08-04T03:35:42.833Z,23.17
2018-08-04T03:36:42.821Z,23.15
2018-08-04T03:37:42.755Z,23.07
2018-08-04T03:38:42.733Z,23.08
2018-08-04T03:39:42.709Z,23.08
2018-08-04T03:40:42.669Z,22.99
2018-08-04T03:41:42.641Z,22.96
2018-08-04T03:42:42.606Z,22.94
2018-08-04T03:43:42.925Z,22.84
2018-08-04T03:44:42.554Z,22.97
2018-08-04T03:45:42.514Z,22.90
2018-08-04T03:46:42.492Z,22.82
2018-08-04T03:47:42.453Z,22.87
2018-08-04T03:48:42.443Z,22.94
2018-08-04T03:49:42.403Z,22.87
2018-08-04T03:50:42.374Z,22.93
2018-08-04T03:51:42.339Z,22.93
2018-08-04T03:52:42.311Z,22.93
2018-08-04T03:53:42.282Z,22.96
2018-08-04T03:54:42.256Z,23.01
2018-08-04T03:55:42.219Z,22.96
2018-08-04T03:56:42.184Z,22.99
2018-08-04T03:57:42.158Z,22.89
2018-08-04T03:58:42.120Z,22.94
2018-08-04T03:59:42.137Z,22.93
2018-08-04T04:00:42.078Z,22.84
2018-08-04T04:01:42.088Z,22.92
2018-08-04T04:02:42.000Z,22.83
2018-08-04T04:03:41.983Z,22.84
2018-08-04T04:04:41.951Z,22.78
2018-08-04T04:05:41.911Z,22.87
2018-08-04T04:06:41.961Z,22.86
2018-08-04T04:07:41.851Z,22.84
2018-08-04T04:08:41.825Z,22.82
2018-08-04T04:09:41.790Z,22.82
2018-08-04T04:10:41.762Z,22.75
2018-08-04T04:11:41.726Z,22.71
2018-08-04T04:12:41.701Z,22.80
2018-08-04T04:13:41.678Z,22.74
2018-08-04T04:14:41.642Z,22.87
2018-08-04T04:15:41.606Z,22.80
2018-08-04T04:16:41.593Z,22.84
2018-08-04T04:17:41.556Z,22.89
2018-08-04T04:18:41.525Z,22.90
2018-08-04T04:19:41.483Z,22.97
2018-08-04T04:20:41.456Z,22.97
2018-08-04T04:21:41.428Z,22.93
2018-08-04T04:22:41.398Z,22.92
2018-08-04T04:23:41.364Z,22.92
2018-08-04T04:24:41.344Z,22.97
2018-08-04T04:25:41.354Z,22.87
2018-08-04T04:26:41.277Z,22.90
2018-08-04T04:27:41.240Z,22.86
2018-08-04T04:28:41.224Z,22.74
2018-08-04T04:29:41.189Z,22.65
2018-08-04T04:30:41.151Z,22.65
2018-08-04T04:31:41.122Z,22.60
2018-08-04T04:32:41.090Z,22.52
2018-08-04T04:33:41.065Z,22.52
2018-08-04T04:34:41.030Z,22.44
2018-08-04T04:35:41.007Z,22.39
2018-08-04T04:36:41.377Z,22.39
2018-08-04T04:37:40.952Z,22.41
2018-08-04T04:38:40.907Z,22.38
2018-08-04T04:39:40.891Z,22.34
2018-08-04T04:40:40.850Z,22.43
2018-08-04T04:41:40.823Z,22.35
2018-08-04T04:42:40.800Z,22.28
2018-08-04T04:43:40.759Z,22.22
2018-08-04T04:44:40.725Z,22.32
2018-08-04T04:45:40.700Z,22.22
2018-08-04T04:46:40.683Z,22.16
2018-08-04T04:47:40.647Z,22.20
2018-08-04T04:48:40.604Z,22.17
2018-08-04T04:49:40.585Z,22.09
2018-08-04T04:50:40.547Z,22.01
2018-08-04T04:51:40.511Z,22.10
2018-08-04T04:52:40.481Z,22.10
2018-08-04T04:53:40.459Z,21.99
2018-08-04T04:54:40.421Z,21.99
2018-08-04T04:55:40.401Z,22.09
2018-08-04T04:56:40.382Z,22.04
2018-08-04T04:57:40.333Z,22.10
2018-08-04T04:58:40.300Z,22.07
2018-08-04T04:59:40.283Z,22.10
2018-08-04T05:00:40.238Z,22.04
2018-08-04T05:01:40.220Z,22.02
2018-08-04T05:02:40.184Z,22.09
2018-08-04T05:03:40.160Z,22.12
2018-08-04T05:04:40.122Z,22.07
2018-08-04T05:05:40.093Z,22.04
2018-08-04T05:06:40.058Z,22.09
2018-08-04T05:07:40.032Z,22.09
2018-08-04T05:08:40.249Z,21.98
2018-08-04T05:09:39.969Z,22.06
2018-08-04T05:10:39.942Z,22.09
2018-08-04T05:11:39.905Z,22.04
2018-08-04T05:12:39.871Z,22.01
2018-08-04T05:13:39.845Z,22.09
2018-08-04T05:14:40.018Z,21.99
2018-08-04T05:15:39.776Z,22.04
2018-08-04T05:16:39.753Z,22.02
2018-08-04T05:17:39.720Z,22.02
2018-08-04T05:18:39.689Z,22.06
2018-08-04T05:19:39.661Z,21.95
2018-08-04T05:20:39.627Z,22.04
2018-08-04T05:21:39.614Z,21.99
2018-08-04T05:22:39.566Z,21.97
2018-08-04T05:23:39.540Z,22.04
2018-08-04T05:24:39.511Z,22.04
2018-08-04T05:25:39.477Z,22.01
2018-08-04T05:26:39.448Z,21.97
2018-08-04T05:27:39.418Z,21.92
2018-08-04T05:28:39.397Z,21.78
2018-08-04T05:29:39.358Z,21.88
2018-08-04T05:30:39.320Z,21.88
2018-08-04T05:31:39.292Z,21.83
2018-08-04T05:32:39.264Z,21.90
2018-08-04T05:33:39.235Z,21.85
2018-08-04T05:34:39.202Z,21.78
2018-08-04T05:35:39.167Z,21.79
2018-08-04T05:36:39.138Z,21.78
2018-08-04T05:37:39.116Z,21.76
2018-08-04T05:38:39.079Z,21.76
2018-08-04T05:39:39.042Z,21.76
2018-08-04T05:40:39.015Z,21.79
2018-08-04T05:41:38.989Z,21.74
2018-08-04T05:42:38.948Z,21.79
2018-08-04T05:43:38.957Z,21.76
2018-08-04T05:44:38.900Z,21.81
2018-08-04T05:45:38.858Z,21.79
2018-08-04T05:46:38.837Z,21.78
2018-08-04T05:47:38.799Z,21.74
2018-08-04T05:48:38.771Z,21.74
2018-08-04T05:49:38.745Z,21.75
2018-08-04T05:50:38.711Z,21.75
2018-08-04T05:51:38.675Z,21.74
2018-08-04T05:52:38.663Z,21.74
2018-08-04T05:53:38.616Z,21.67
2018-08-04T05:54:38.604Z,21.74
2018-08-04T05:55:38.570Z,21.66
2018-08-04T05:56:38.518Z,21.74
2018-08-04T05:57:38.488Z,21.66
2018-08-04T05:58:38.470Z,21.72
2018-08-04T05:59:38.496Z,21.71
2018-08-04T06:00:38.400Z,21.74
2018-08-04T06:01:38.373Z,21.74
2018-08-04T06:02:38.336Z,21.74
2018-08-04T06:03:38.327Z,21.75
2018-08-04T06:04:38.283Z,21.71
2018-08-04T06:05:38.245Z,21.76
2018-08-04T06:06:38.218Z,21.71
2018-08-04T06:07:38.182Z,21.76
2018-08-04T06:08:38.162Z,21.78
2018-08-04T06:09:38.124Z,21.78
2018-08-04T06:10:38.093Z,21.71
2018-08-04T06:11:38.060Z,21.79
2018-08-04T06:12:38.035Z,21.60
2018-08-04T06:13:38.201Z,21.64
2018-08-04T06:14:37.966Z,21.53
2018-08-04T06:15:37.932Z,21.48
2018-08-04T06:16:37.902Z,21.54
2018-08-04T06:17:37.885Z,21.45
2018-08-04T06:18:37.849Z,21.41
2018-08-04T06:19:37.808Z,21.39
2018-08-04T06:20:37.777Z,21.46
2018-08-04T06:21:37.756Z,21.44
2018-08-04T06:22:37.717Z,21.44
2018-08-04T06:23:37.689Z,21.48
2018-08-04T06:24:37.657Z,21.54
2018-08-04T06:25:37.627Z,21.54
2018-08-04T06:26:37.597Z,21.53
2018-08-04T06:27:37.573Z,21.48
2018-08-04T06:28:37.535Z,21.45
2018-08-04T06:29:37.503Z,21.48
2018-08-04T06:30:37.602Z,21.57
2018-08-04T06:31:37.436Z,21.59
2018-08-04T06:32:37.410Z,21.57
2018-08-04T06:33:37.376Z,21.63
2018-08-04T06:34:37.345Z,21.66
2018-08-04T06:35:37.332Z,21.59
2018-08-04T06:36:37.282Z,21.66
2018-08-04T06:37:37.255Z,21.59
2018-08-04T06:38:37.228Z,21.63
2018-08-04T06:39:37.197Z,21.71
2018-08-04T06:40:37.163Z,21.79
2018-08-04T06:41:37.154Z,21.75
2018-08-04T06:42:37.107Z,21.71
2018-08-04T06:43:37.085Z,21.74
2018-08-04T06:44:37.036Z,21.69
2018-08-04T06:45:37.207Z,21.67
2018-08-04T06:46:36.976Z,21.71
2018-08-04T06:47:36.944Z,21.60
2018-08-04T06:48:36.910Z,21.66
2018-08-04T06:49:36.879Z,21.53
2018-08-04T06:50:36.847Z,21.46
2018-08-04T06:51:36.918Z,21.53
2018-08-04T06:52:36.792Z,21.39
2018-08-04T06:53:36.758Z,21.42
2018-08-04T06:54:36.744Z,21.41
2018-08-04T06:55:36.693Z,21.42
2018-08-04T06:56:36.681Z,21.48
2018-08-04T06:57:36.630Z,21.38
2018-08-04T06:58:36.624Z,21.30
2018-08-04T06:59:36.572Z,21.27
2018-08-04T07:00:36.538Z,21.21
2018-08-04T07:01:36.513Z,21.26
2018-08-04T07:02:36.474Z,21.14
2018-08-04T07:03:36.457Z,21.16
2018-08-04T07:04:36.413Z,21.08
2018-08-04T07:05:36.389Z,21.13
2018-08-04T07:06:36.350Z,21.13
2018-08-04T07:07:36.366Z,21.13
2018-08-04T07:08:36.293Z,21.17
2018-08-04T07:09:36.257Z,21.16
2018-08-04T07:10:36.232Z,21.16
2018-08-04T07:11:36.197Z,21.16
2018-08-04T07:12:36.174Z,21.16
2018-08-04T07:13:36.134Z,21.20
2018-08-04T07:14:36.103Z,21.20
2018-08-04T07:15:36.076Z,21.19
2018-08-04T07:16:36.040Z,21.35
2018-08-04T07:17:36.015Z,21.32
2018-08-04T07:18:36.185Z,21.34
2018-08-04T07:19:35.946Z,21.38
2018-08-04T07:20:35.915Z,21.41
2018-08-04T07:21:35.886Z,21.35
2018-08-04T07:22:35.865Z,21.41
2018-08-04T07:23:35.852Z,21.46
2018-08-04T07:24:35.998Z,21.42
2018-08-04T07:25:35.772Z,21.35
2018-08-04T07:26:35.729Z,21.32
2018-08-04T07:27:35.703Z,21.30
2018-08-04T07:28:35.668Z,21.34
2018-08-04T07:29:35.637Z,21.34
2018-08-04T07:30:35.603Z,21.39
2018-08-04T07:31:35.576Z,21.27
2018-08-04T07:32:35.553Z,21.30
2018-08-04T07:33:35.512Z,21.23
2018-08-04T07:34:35.480Z,21.21
2018-08-04T07:35:35.455Z,21.21
2018-08-04T07:36:35.421Z,21.26
2018-08-04T07:37:35.389Z,21.20
2018-08-04T07:38:35.365Z,21.16
2018-08-04T07:39:35.327Z,21.14
2018-08-04T07:40:35.308Z,21.16
2018-08-04T07:41:35.265Z,21.13
2018-08-04T07:42:35.234Z,21.17
2018-08-04T07:43:35.210Z,21.16
2018-08-04T07:44:35.173Z,21.17
2018-08-04T07:45:35.141Z,21.17
2018-08-04T07:46:35.104Z,21.26
2018-08-04T07:47:35.128Z,21.16
2018-08-04T07:48:35.051Z,21.17
2018-08-04T07:49:35.011Z,21.24
2018-08-04T07:50:34.984Z,21.19
2018-08-04T07:51:34.954Z,21.26
2018-08-04T07:52:34.925Z,21.29
2018-08-04T07:53:34.921Z,21.29
2018-08-04T07:54:34.855Z,21.34
2018-08-04T07:55:34.828Z,21.29
2018-08-04T07:56:34.795Z,21.34
2018-08-04T07:57:34.767Z,21.34
2018-08-04T07:58:34.731Z,21.29
2018-08-04T07:59:34.738Z,21.32
2018-08-04T08:00:34.668Z,21.27
2018-08-04T08:01:34.637Z,21.20
2018-08-04T08:02:34.605Z,21.27
2018-08-04T08:03:34.575Z,21.17
2018-08-04T08:04:34.550Z,21.17
2018-08-04T08:05:34.713Z,21.11
2018-08-04T08:06:34.479Z,21.20
2018-08-04T08:07:34.461Z,21.21
2018-08-04T08:08:34.417Z,21.24
2018-08-04T08:09:34.388Z,21.29
2018-08-04T08:10:34.434Z,21.32
2018-08-04T08:11:34.326Z,21.29
2018-08-04T08:12:34.299Z,21.30
2018-08-04T08:13:34.266Z,21.39
2018-08-04T08:14:34.236Z,21.44
2018-08-04T08:15:34.207Z,21.42
2018-08-04T08:17:34.136Z,21.59
2018-08-04T08:18:34.105Z,21.54
2018-08-04T08:19:34.075Z,21.53
2018-08-04T08:20:34.064Z,21.56
2018-08-04T08:21:34.025Z,21.64
2018-08-04T08:22:33.979Z,21.61
2018-08-04T08:23:33.948Z,21.60
2018-08-04T08:24:33.918Z,21.67
2018-08-04T08:25:33.885Z,21.57
2018-08-04T08:26:33.852Z,21.59
2018-08-04T08:27:33.823Z,21.54
2018-08-04T08:28:33.788Z,21.60
2018-08-04T08:29:33.764Z,21.63
2018-08-04T08:30:33.732Z,21.61
2018-08-04T08:31:33.785Z,21.56
2018-08-04T08:32:33.751Z,21.54
2018-08-04T08:33:33.640Z,21.51
2018-08-04T08:34:33.608Z,21.56
2018-08-04T08:35:33.573Z,21.50
2018-08-04T08:36:33.642Z,21.53
2018-08-04T08:37:33.515Z,21.54
2018-08-04T08:38:33.493Z,21.54
2018-08-04T08:39:33.448Z,21.54
2018-08-04T08:40:33.418Z,21.51
2018-08-04T08:41:33.833Z,21.53
2018-08-04T08:42:33.354Z,21.51
2018-08-04T08:43:33.324Z,21.56
2018-08-04T08:44:33.301Z,21.53
2018-08-04T08:45:33.257Z,21.56
2018-08-04T08:46:33.231Z,21.56
2018-08-04T08:47:33.201Z,21.54
2018-08-04T08:48:33.167Z,21.45
2018-08-04T08:49:33.136Z,21.53
2018-08-04T08:50:33.102Z,21.54
2018-08-04T08:51:33.068Z,21.54
2018-08-04T08:52:33.436Z,21.54
2018-08-04T08:53:33.144Z,21.54
2018-08-04T08:54:32.976Z,21.54
2018-08-04T08:55:32.947Z,21.60
2018-08-04T08:56:32.919Z,21.63
2018-08-04T08:57:32.882Z,21.64
2018-08-04T08:58:32.901Z,21.56
2018-08-04T08:59:32.819Z,21.61
2018-08-04T09:00:32.790Z,21.64
2018-08-04T09:01:32.762Z,21.57
2018-08-04T09:02:32.724Z,21.56
2018-08-04T09:03:32.701Z,21.54
2018-08-04T09:04:32.817Z,21.56
2018-08-04T09:05:32.633Z,21.57
2018-08-04T09:06:32.599Z,21.59
2018-08-04T09:07:32.566Z,21.53
2018-08-04T09:08:32.565Z,21.54
2018-08-04T09:09:32.507Z,21.41
2018-08-04T09:10:32.481Z,21.38
2018-08-04T09:11:32.453Z,21.38
2018-08-04T09:12:32.413Z,21.41
2018-08-04T09:13:32.378Z,21.39
2018-08-04T09:14:32.385Z,21.29
2018-08-04T09:15:32.332Z,21.32
2018-08-04T09:16:32.297Z,21.38
2018-08-04T09:17:32.259Z,21.29
2018-08-04T09:18:32.222Z,21.41
2018-08-04T09:19:32.188Z,21.27
2018-08-04T09:20:32.371Z,21.30
2018-08-04T09:21:32.128Z,21.24
2018-08-04T09:22:32.112Z,21.21
2018-08-04T09:23:32.066Z,21.26
2018-08-04T09:24:32.032Z,21.23
2018-08-04T09:25:32.011Z,21.26
2018-08-04T09:26:32.127Z,21.21
2018-08-04T09:27:31.944Z,21.26
2018-08-04T09:28:31.909Z,21.26
2018-08-04T09:29:31.878Z,21.27
2018-08-04T09:30:31.855Z,21.26
2018-08-04T09:31:31.819Z,21.23
2018-08-04T09:32:31.794Z,21.17
2018-08-04T09:33:31.788Z,21.23
2018-08-04T09:34:31.752Z,21.14
2018-08-04T09:35:31.699Z,21.17
2018-08-04T09:36:31.662Z,21.16
2018-08-04T09:37:31.629Z,21.13
2018-08-04T09:38:31.614Z,21.16
2018-08-04T09:39:31.575Z,21.08
2018-08-04T09:40:31.539Z,21.06
2018-08-04T09:41:31.513Z,20.90
2018-08-04T09:42:31.675Z,20.79
2018-08-04T09:43:31.506Z,20.87
2018-08-04T09:44:31.410Z,20.87
2018-08-04T09:45:31.377Z,20.77
2018-08-04T09:46:31.349Z,20.77
2018-08-04T09:47:31.344Z,20.64
2018-08-04T09:48:31.287Z,20.61
2018-08-04T09:49:31.250Z,20.64
2018-08-04T09:50:31.228Z,20.59
2018-08-04T09:51:31.186Z,20.59
2018-08-04T09:52:31.164Z,20.68
2018-08-04T09:53:31.135Z,20.62
2018-08-04T09:54:31.097Z,20.66
2018-08-04T09:55:31.066Z,20.74
2018-08-04T09:56:31.028Z,20.65
2018-08-04T09:57:31.010Z,20.81
2018-08-04T09:58:30.968Z,20.81
2018-08-04T09:59:30.951Z,20.80
2018-08-04T10:00:30.906Z,20.80
2018-08-04T10:01:30.884Z,20.81
2018-08-04T10:02:30.852Z,20.83
2018-08-04T10:03:30.810Z,20.93
2018-08-04T10:04:30.783Z,20.86
2018-08-04T10:05:30.752Z,20.93
2018-08-04T10:06:30.727Z,20.84
2018-08-04T10:07:30.687Z,20.91
2018-08-04T10:08:30.662Z,20.93
2018-08-04T10:09:30.631Z,20.89
2018-08-04T10:10:30.597Z,20.87
2018-08-04T10:11:30.570Z,20.84
2018-08-04T10:12:30.538Z,20.87
2018-08-04T10:13:30.552Z,20.89
2018-08-04T10:14:30.814Z,20.95
2018-08-04T10:15:30.434Z,21.01
2018-08-04T10:16:30.448Z,21.05
2018-08-04T10:17:30.400Z,21.01
2018-08-04T10:18:30.342Z,20.99
2018-08-04T10:19:30.319Z,21.01
2018-08-04T10:20:30.282Z,21.06
2018-08-04T10:21:30.307Z,21.13
2018-08-04T10:22:30.218Z,21.09
2018-08-04T10:23:30.182Z,21.08
2018-08-04T10:24:30.149Z,21.16
2018-08-04T10:25:30.471Z,21.13
2018-08-04T10:26:30.138Z,21.11
2018-08-04T10:27:30.061Z,21.14
2018-08-04T10:28:30.030Z,21.19
2018-08-04T10:29:29.995Z,21.19
2018-08-04T10:30:30.001Z,21.17
2018-08-04T10:31:30.035Z,21.20
2018-08-04T10:32:29.940Z,21.26
2018-08-04T10:33:29.869Z,21.23
2018-08-04T10:34:29.846Z,21.30
2018-08-04T10:35:29.820Z,21.27
2018-08-04T10:36:29.779Z,21.34
2018-08-04T10:37:29.756Z,21.30
2018-08-04T10:38:29.740Z,21.44
2018-08-04T10:39:29.701Z,21.42
2018-08-04T10:40:29.657Z,21.56
2018-08-04T10:41:29.628Z,21.50
2018-08-04T10:42:29.640Z,21.54
2018-08-04T10:43:29.556Z,21.61
2018-08-04T10:44:29.530Z,21.61
2018-08-04T10:45:29.499Z,21.74
2018-08-04T10:46:29.466Z,21.76
2018-08-04T10:47:29.635Z,21.81
2018-08-04T10:48:29.410Z,21.88
2018-08-04T10:49:29.415Z,21.90
2018-08-04T10:50:29.344Z,21.79
2018-08-04T10:51:29.308Z,21.97
2018-08-04T10:52:29.279Z,21.98
2018-08-04T10:53:29.251Z,22.04
2018-08-04T10:54:29.219Z,22.06
2018-08-04T10:55:29.190Z,22.02
2018-08-04T10:56:29.161Z,22.13
2018-08-04T10:57:29.127Z,22.20
2018-08-04T10:58:29.203Z,22.20
2018-08-04T10:59:29.061Z,22.29
2018-08-04T11:00:29.030Z,22.28
2018-08-04T11:01:29.008Z,22.38
2018-08-04T11:02:28.974Z,22.37
2018-08-04T11:03:28.949Z,22.37
2018-08-04T11:04:28.931Z,22.41
2018-08-04T11:05:28.876Z,22.53
2018-08-04T11:06:28.848Z,22.56
2018-08-04T11:07:28.820Z,22.53
2018-08-04T11:08:28.793Z,22.67
2018-08-04T11:09:28.762Z,22.57
2018-08-04T11:10:28.726Z,22.64
2018-08-04T11:11:28.710Z,22.71
2018-08-04T11:12:28.686Z,22.84
2018-08-04T11:13:28.632Z,22.92
2018-08-04T11:14:28.604Z,22.90
2018-08-04T11:15:28.575Z,22.96
2018-08-04T11:16:28.559Z,22.96
2018-08-04T11:17:28.517Z,23.02
2018-08-04T11:18:28.500Z,23.08
2018-08-04T11:19:28.661Z,23.08
2018-08-04T11:20:28.433Z,23.15
2018-08-04T11:21:28.394Z,23.17
2018-08-04T11:22:28.363Z,23.24
2018-08-04T11:23:28.335Z,23.26
2018-08-04T11:24:28.301Z,23.29
2018-08-04T11:25:28.270Z,23.32
2018-08-04T11:26:28.240Z,23.40
2018-08-04T11:27:28.209Z,23.46
2018-08-04T11:28:28.191Z,23.52
2018-08-04T11:29:28.151Z,23.58
2018-08-04T11:30:28.472Z,23.64
2018-08-04T11:31:28.088Z,23.62
2018-08-04T11:32:28.064Z,23.70
2018-08-04T11:33:28.038Z,23.76
2018-08-04T11:34:27.998Z,23.77
2018-08-04T11:35:27.970Z,23.79
2018-08-04T11:36:28.096Z,23.83
2018-08-04T11:37:27.923Z,23.94
2018-08-04T11:38:27.889Z,23.89
2018-08-04T11:39:27.857Z,24.00
2018-08-04T11:40:27.821Z,23.95
2018-08-04T11:41:27.993Z,23.98
2018-08-04T11:42:27.758Z,24.07
2018-08-04T11:43:27.737Z,24.12
2018-08-04T11:44:27.703Z,24.17
2018-08-04T11:45:27.771Z,24.20
2018-08-04T11:46:27.639Z,24.14
2018-08-04T11:47:27.614Z,24.20
2018-08-04T11:48:27.594Z,24.26
2018-08-04T11:49:27.585Z,24.29
2018-08-04T11:50:27.533Z,24.37
2018-08-04T11:51:27.510Z,24.27
2018-08-04T11:52:27.766Z,24.39
2018-08-04T11:53:27.434Z,24.35
2018-08-04T11:54:27.405Z,24.47
2018-08-04T11:55:27.374Z,24.54
2018-08-04T11:56:27.349Z,24.53
2018-08-04T11:57:27.319Z,25.20
2018-08-04T11:58:27.335Z,26.12
2018-08-04T11:59:27.274Z,26.89
2018-08-04T12:00:27.226Z,27.61
2018-08-04T12:01:27.230Z,28.03
2018-08-04T12:02:27.174Z,28.58
2018-08-04T12:03:27.293Z,29.00
2018-08-04T12:04:27.112Z,29.44
2018-08-04T12:05:27.095Z,29.78
2018-08-04T12:06:27.064Z,30.11
2018-08-04T12:07:27.049Z,30.43
2018-08-04T12:08:26.995Z,30.69
2018-08-04T12:09:27.290Z,31.02
2018-08-04T12:10:26.940Z,31.18
2018-08-04T12:11:26.918Z,31.42
2018-08-04T12:12:26.885Z,31.46
2018-08-04T12:13:26.866Z,31.49
2018-08-04T12:14:26.832Z,31.58
2018-08-04T12:15:27.005Z,31.65
2018-08-04T12:16:26.778Z,31.72
2018-08-04T12:17:26.750Z,31.82
2018-08-04T12:18:26.728Z,31.96
2018-08-04T12:19:26.706Z,32.03
2018-08-04T12:20:26.678Z,32.17
2018-08-04T12:21:26.646Z,32.39
2018-08-04T12:22:26.630Z,32.55
2018-08-04T12:23:26.604Z,32.66
2018-08-04T12:24:26.571Z,32.71
2018-08-04T12:25:26.582Z,32.76
2018-08-04T12:26:26.529Z,32.69
2018-08-04T12:27:26.495Z,32.85
2018-08-04T12:28:26.472Z,32.99
2018-08-04T12:29:26.467Z,33.08
2018-08-04T12:30:26.428Z,33.03
2018-08-04T12:31:26.612Z,32.93
2018-08-04T12:32:26.386Z,32.79
2018-08-04T12:33:26.358Z,32.64
2018-08-04T12:34:26.328Z,32.36
2018-08-04T12:35:26.311Z,32.11
2018-08-04T12:37:26.357Z,31.87
2018-08-04T12:38:26.241Z,31.92
2018-08-04T12:39:26.208Z,32.11
2018-08-04T12:40:26.202Z,32.48
2018-08-04T12:41:26.164Z,32.73
2018-08-04T12:42:26.143Z,32.91
2018-08-04T12:43:26.127Z,33.15
2018-08-04T12:44:26.103Z,33.31
2018-08-04T12:45:26.084Z,33.36
2018-08-04T12:46:26.065Z,33.29
2018-08-04T12:47:26.031Z,32.91
2018-08-04T12:48:26.026Z,32.67
2018-08-04T12:49:25.998Z,32.42
2018-08-04T12:50:25.977Z,32.70
2018-08-04T12:51:26.156Z,32.96
2018-08-04T12:52:25.958Z,33.22
2018-08-04T12:53:25.922Z,33.51
2018-08-04T12:54:25.938Z,33.46
2018-08-04T12:55:25.856Z,33.78
2018-08-04T12:56:25.847Z,33.61
2018-08-04T12:57:25.894Z,33.34
2018-08-04T12:58:25.815Z,32.69
2018-08-04T12:59:25.819Z,32.15
2018-08-04T13:00:25.759Z,32.27
2018-08-04T13:01:25.734Z,32.39
2018-08-04T13:02:25.725Z,32.05
2018-08-04T13:03:25.689Z,31.87
2018-08-04T13:04:25.778Z,32.32
2018-08-04T13:05:25.800Z,32.76
2018-08-04T13:06:25.644Z,33.08
2018-08-04T13:07:25.605Z,33.14
2018-08-04T13:08:25.591Z,33.36
2018-08-04T13:09:25.566Z,33.36
2018-08-04T13:10:25.543Z,33.23
2018-08-04T13:11:25.537Z,32.92
2018-08-04T13:12:25.497Z,32.70
2018-08-04T13:13:25.526Z,32.59
2018-08-04T13:14:25.462Z,32.59
2018-08-04T13:15:25.446Z,32.49
2018-08-04T13:16:25.416Z,32.39
2018-08-04T13:17:25.402Z,32.27
2018-08-04T13:18:25.382Z,31.87
2018-08-04T13:19:25.385Z,31.70
2018-08-04T13:20:25.351Z,31.35
2018-08-04T13:21:25.324Z,31.23
2018-08-04T13:22:25.628Z,31.18
2018-08-04T13:23:25.278Z,30.98
2018-08-04T13:24:25.326Z,30.90
2018-08-04T13:25:25.242Z,30.74
2018-08-04T13:26:25.228Z,30.71
2018-08-04T13:27:25.262Z,30.59
2018-08-04T13:28:25.334Z,30.45
2018-08-04T13:29:25.206Z,30.30
2018-08-04T13:30:25.235Z,30.23
2018-08-04T13:31:25.127Z,30.09
2018-08-04T13:32:25.111Z,29.96
2018-08-04T13:33:25.100Z,29.92
2018-08-04T13:34:25.292Z,29.82
2018-08-04T13:35:25.053Z,29.79
2018-08-04T13:36:25.029Z,29.79
2018-08-04T13:37:25.013Z,29.70
2018-08-04T13:38:24.995Z,29.65
2018-08-04T13:39:24.968Z,29.66
2018-08-04T13:40:24.999Z,29.65
2018-08-04T13:41:24.943Z,29.59
2018-08-04T13:42:24.912Z,29.59
2018-08-04T13:43:24.886Z,29.65